createdAt,value
2017-10-04T00:00:16.677Z,1020.06
2017-10-04T00:01:26.277Z,1019.99
2017-10-04T00:02:35.557Z,1019.97
2017-10-04T00:03:44.905Z,1019.99
2017-10-04T00:04:54.029Z,1020.03
2017-10-04T00:06:02.678Z,1020.06
2017-10-04T00:07:11.683Z,1020.06
2017-10-04T00:08:20.976Z,1020
2017-10-04T00:09:29.637Z,1019.99
2017-10-04T00:10:38.760Z,1019.98
2017-10-04T00:11:48.369Z,1019.99
2017-10-04T00:12:57.333Z,1020
2017-10-04T00:14:05.985Z,1020.05
2017-10-04T00:15:15.571Z,1019.99
2017-10-04T00:16:24.680Z,1019.99
2017-10-04T00:17:33.326Z,1019.93
2017-10-04T00:18:42.317Z,1019.94
2017-10-04T00:19:51.594Z,1019.86
2017-10-04T00:21:00.245Z,1019.84
2017-10-04T00:22:09.542Z,1019.81
2017-10-04T00:23:18.848Z,1019.75
2017-10-04T00:24:27.836Z,1019.78
2017-10-04T00:25:36.496Z,1019.77
2017-10-04T00:26:45.799Z,1019.78
2017-10-04T00:27:54.775Z,1019.78
2017-10-04T00:29:03.763Z,1019.75
2017-10-04T00:30:12.726Z,1019.74
2017-10-04T00:31:21.688Z,1019.73
2017-10-04T00:32:30.658Z,1019.76
2017-10-04T00:33:39.952Z,1019.76
2017-10-04T00:34:48.627Z,1019.74
2017-10-04T00:35:57.291Z,1019.75
2017-10-04T00:37:07.196Z,1019.75
2017-10-04T00:38:15.876Z,1019.83
2017-10-04T00:39:24.534Z,1019.84
2017-10-04T00:40:34.154Z,1019.81
2017-10-04T00:41:43.439Z,1019.88
2017-10-04T00:42:52.407Z,1019.86
2017-10-04T00:44:01.374Z,1019.89
2017-10-04T00:45:10.188Z,1019.83
2017-10-04T00:46:19.160Z,1019.79
2017-10-04T00:47:28.135Z,1019.8
2017-10-04T00:48:36.807Z,1019.8
2017-10-04T00:49:46.406Z,1019.8
2017-10-04T00:50:55.689Z,1019.81
2017-10-04T00:52:04.969Z,1019.8
2017-10-04T00:53:14.876Z,1019.74
2017-10-04T00:54:23.848Z,1019.69
2017-10-04T00:55:33.119Z,1019.69
2017-10-04T00:56:42.506Z,1019.65
2017-10-04T00:57:51.790Z,1019.63
2017-10-04T00:59:00.442Z,1019.62
2017-10-04T01:00:09.419Z,1019.6
2017-10-04T01:01:18.385Z,1019.59
2017-10-04T01:02:27.351Z,1019.56
2017-10-04T01:03:36.631Z,1019.55
2017-10-04T01:04:46.010Z,1019.57
2017-10-04T01:05:54.663Z,1019.5
2017-10-04T01:07:03.693Z,1019.53
2017-10-04T01:08:12.806Z,1019.64
2017-10-04T01:09:21.455Z,1019.63
2017-10-04T01:10:30.735Z,1019.6
2017-10-04T01:11:39.697Z,1019.59
2017-10-04T01:12:48.658Z,1019.64
2017-10-04T01:13:58.095Z,1019.65
2017-10-04T01:15:06.754Z,1019.64
2017-10-04T01:16:15.723Z,1019.63
2017-10-04T01:17:25.001Z,1019.61
2017-10-04T01:18:34.278Z,1019.58
2017-10-04T01:19:43.697Z,1019.57
2017-10-04T01:20:52.664Z,1019.57
2017-10-04T01:22:01.946Z,1019.52
2017-10-04T01:23:10.904Z,1019.55
2017-10-04T01:24:20.512Z,1019.56
2017-10-04T01:25:29.503Z,1019.54
2017-10-04T01:26:38.788Z,1019.54
2017-10-04T01:27:47.747Z,1019.53
2017-10-04T01:28:57.047Z,1019.44
2017-10-04T01:30:06.554Z,1019.4
2017-10-04T01:31:15.536Z,1019.32
2017-10-04T01:32:24.485Z,1019.34
2017-10-04T01:33:33.141Z,1019.46
2017-10-04T01:34:42.112Z,1019.45
2017-10-04T01:35:51.080Z,1019.53
2017-10-04T01:37:00.860Z,1019.46
2017-10-04T01:38:10.118Z,1019.47
2017-10-04T01:39:19.386Z,1019.45
2017-10-04T01:40:28.400Z,1019.51
2017-10-04T01:41:37.067Z,1019.43
2017-10-04T01:42:46.812Z,1019.49
2017-10-04T01:43:55.782Z,1019.51
2017-10-04T01:45:04.768Z,1019.5
2017-10-04T01:46:13.732Z,1019.51
2017-10-04T01:47:22.708Z,1019.5
2017-10-04T01:48:32.125Z,1019.45
2017-10-04T01:49:41.087Z,1019.45
2017-10-04T01:50:50.391Z,1019.43
2017-10-04T01:51:59.050Z,1019.38
2017-10-04T01:53:07.711Z,1019.35
2017-10-04T01:54:16.524Z,1019.34
2017-10-04T01:55:25.180Z,1019.28
2017-10-04T01:56:34.506Z,1019.3
2017-10-04T01:57:43.475Z,1019.29
2017-10-04T01:58:52.775Z,1019.34
2017-10-04T02:00:02.100Z,1019.4
2017-10-04T02:01:11.116Z,1019.37
2017-10-04T02:02:20.083Z,1019.33
2017-10-04T02:03:29.066Z,1019.35
2017-10-04T02:04:37.717Z,1019.38
2017-10-04T02:05:46.845Z,1019.33
2017-10-04T02:06:55.505Z,1019.38
2017-10-04T02:08:04.480Z,1019.36
2017-10-04T02:09:13.444Z,1019.39
2017-10-04T02:10:22.721Z,1019.38
2017-10-04T02:11:32.478Z,1019.36
2017-10-04T02:12:41.455Z,1019.4
2017-10-04T02:13:50.742Z,1019.34
2017-10-04T02:14:59.736Z,1019.34
2017-10-04T02:16:09.042Z,1019.34
2017-10-04T02:17:18.157Z,1019.37
2017-10-04T02:18:27.766Z,1019.37
2017-10-04T02:19:36.737Z,1019.36
2017-10-04T02:20:45.715Z,1019.38
2017-10-04T02:21:54.379Z,1019.36
2017-10-04T02:23:03.648Z,1019.36
2017-10-04T02:24:12.936Z,1019.37
2017-10-04T02:25:21.583Z,1019.38
2017-10-04T02:26:30.868Z,1019.44
2017-10-04T02:27:39.831Z,1019.44
2017-10-04T02:28:48.815Z,1019.4
2017-10-04T02:29:57.774Z,1019.33
2017-10-04T02:31:07.063Z,1019.31
2017-10-04T02:32:16.031Z,1019.31
2017-10-04T02:33:25.949Z,1019.29
2017-10-04T02:34:35.217Z,1019.26
2017-10-04T02:35:44.828Z,1019.27
2017-10-04T02:36:54.435Z,1019.22
2017-10-04T02:38:03.413Z,1019.22
2017-10-04T02:39:12.392Z,1019.24
2017-10-04T02:40:21.986Z,1019.28
2017-10-04T02:41:30.961Z,1019.24
2017-10-04T02:42:39.925Z,1019.21
2017-10-04T02:43:48.903Z,1019.19
2017-10-04T02:44:58.221Z,1019.16
2017-10-04T02:46:07.479Z,1019.12
2017-10-04T02:47:16.772Z,1019.15
2017-10-04T02:48:25.742Z,1019.15
2017-10-04T02:49:34.704Z,1019.2
2017-10-04T02:50:43.370Z,1019.22
2017-10-04T02:51:52.479Z,1019.1
2017-10-04T02:53:02.081Z,1019.15
2017-10-04T02:54:11.059Z,1019.19
2017-10-04T02:55:20.340Z,1019.17
2017-10-04T02:56:29.636Z,1019.16
2017-10-04T02:57:38.593Z,1019.19
2017-10-04T02:58:47.565Z,1019.19
2017-10-04T02:59:56.525Z,1019.18
2017-10-04T03:01:05.810Z,1019.16
2017-10-04T03:02:15.710Z,1019.16
2017-10-04T03:03:24.684Z,1019.17
2017-10-04T03:04:33.653Z,1019.17
2017-10-04T03:05:42.927Z,1019.18
2017-10-04T03:06:52.208Z,1019.17
2017-10-04T03:08:01.169Z,1019.11
2017-10-04T03:09:09.830Z,1019.09
2017-10-04T03:10:19.103Z,1019.11
2017-10-04T03:11:28.716Z,1019.11
2017-10-04T03:12:38.010Z,1019.13
2017-10-04T03:13:46.978Z,1019.04
2017-10-04T03:14:55.633Z,1019.02
2017-10-04T03:16:04.635Z,1019.01
2017-10-04T03:17:13.343Z,1019.03
2017-10-04T03:18:22.057Z,1019.05
2017-10-04T03:19:31.336Z,1019.06
2017-10-04T03:20:40.903Z,1019.07
2017-10-04T03:21:50.189Z,1018.99
2017-10-04T03:22:59.146Z,1018.99
2017-10-04T03:24:08.427Z,1019
2017-10-04T03:25:17.084Z,1018.94
2017-10-04T03:26:26.201Z,1018.94
2017-10-04T03:27:34.861Z,1018.83
2017-10-04T03:28:44.134Z,1018.82
2017-10-04T03:29:53.724Z,1018.78
2017-10-04T03:31:03.022Z,1018.79
2017-10-04T03:32:11.674Z,1018.85
2017-10-04T03:33:21.288Z,1018.85
2017-10-04T03:34:29.967Z,1018.86
2017-10-04T03:35:38.939Z,1018.87
2017-10-04T03:36:47.590Z,1018.83
2017-10-04T03:37:56.711Z,1018.85
2017-10-04T03:39:05.365Z,1018.8
2017-10-04T03:40:14.341Z,1018.85
2017-10-04T03:41:23.928Z,1018.84
2017-10-04T03:42:32.911Z,1018.76
2017-10-04T03:43:42.018Z,1018.8
2017-10-04T03:44:51.290Z,1018.79
2017-10-04T03:45:59.940Z,1018.8
2017-10-04T03:47:08.607Z,1018.83
2017-10-04T03:48:17.573Z,1018.81
2017-10-04T03:49:26.957Z,1018.76
2017-10-04T03:50:35.925Z,1018.74
2017-10-04T03:51:44.580Z,1018.75
2017-10-04T03:52:53.237Z,1018.72
2017-10-04T03:54:01.886Z,1018.72
2017-10-04T03:55:11.171Z,1018.75
2017-10-04T03:56:19.813Z,1018.77
2017-10-04T03:57:29.161Z,1018.79
2017-10-04T03:58:38.120Z,1018.78
2017-10-04T03:59:47.714Z,1018.84
2017-10-04T04:00:56.839Z,1018.88
2017-10-04T04:02:05.808Z,1018.89
2017-10-04T04:03:14.793Z,1018.88
2017-10-04T04:04:24.082Z,1018.82
2017-10-04T04:05:33.048Z,1018.84
2017-10-04T04:06:41.755Z,1018.84
2017-10-04T04:07:50.717Z,1018.92
2017-10-04T04:08:59.693Z,1018.99
2017-10-04T04:10:08.976Z,1018.99
2017-10-04T04:11:18.568Z,1018.94
2017-10-04T04:12:27.229Z,1018.88
2017-10-04T04:13:36.502Z,1018.84
2017-10-04T04:14:45.155Z,1018.84
2017-10-04T04:15:54.757Z,1018.83
2017-10-04T04:17:03.738Z,1018.91
2017-10-04T04:18:13.331Z,1018.9
2017-10-04T04:19:22.617Z,1018.92
2017-10-04T04:20:31.575Z,1018.88
2017-10-04T04:21:40.852Z,1018.82
2017-10-04T04:22:49.820Z,1018.74
2017-10-04T04:23:59.201Z,1018.73
2017-10-04T04:25:08.498Z,1018.62
2017-10-04T04:26:17.466Z,1018.59
2017-10-04T04:27:26.435Z,1018.53
2017-10-04T04:28:36.337Z,1018.53
2017-10-04T04:29:45.019Z,1018.5
2017-10-04T04:30:53.682Z,1018.54
2017-10-04T04:32:02.656Z,1018.48
2017-10-04T04:33:11.935Z,1018.55
2017-10-04T04:34:21.516Z,1018.54
2017-10-04T04:35:30.469Z,1018.55
2017-10-04T04:36:39.445Z,1018.53
2017-10-04T04:37:48.119Z,1018.56
2017-10-04T04:38:56.758Z,1018.57
2017-10-04T04:40:05.727Z,1018.6
2017-10-04T04:41:14.545Z,1018.6
2017-10-04T04:42:23.201Z,1018.62
2017-10-04T04:43:32.482Z,1018.6
2017-10-04T04:44:41.761Z,1018.62
2017-10-04T04:45:50.417Z,1018.6
2017-10-04T04:46:59.713Z,1018.6
2017-10-04T04:48:08.689Z,1018.62
2017-10-04T04:49:17.654Z,1018.6
2017-10-04T04:50:26.297Z,1018.59
2017-10-04T04:51:35.889Z,1018.56
2017-10-04T04:52:44.863Z,1018.5
2017-10-04T04:53:54.487Z,1018.55
2017-10-04T04:55:03.838Z,1018.56
2017-10-04T04:56:12.532Z,1018.58
2017-10-04T04:57:21.518Z,1018.62
2017-10-04T04:58:30.486Z,1018.65
2017-10-04T04:59:39.143Z,1018.56
2017-10-04T05:00:48.430Z,1018.51
2017-10-04T05:01:57.411Z,1018.51
2017-10-04T05:03:06.790Z,1018.46
2017-10-04T05:04:16.414Z,1018.45
2017-10-04T05:05:26.017Z,1018.46
2017-10-04T05:06:34.711Z,1018.45
2017-10-04T05:07:43.682Z,1018.43
2017-10-04T05:08:52.666Z,1018.48
2017-10-04T05:10:01.707Z,1018.49
2017-10-04T05:11:10.686Z,1018.44
2017-10-04T05:12:19.330Z,1018.45
2017-10-04T05:13:28.378Z,1018.41
2017-10-04T05:14:37.063Z,1018.45
2017-10-04T05:15:46.356Z,1018.4
2017-10-04T05:16:55.364Z,1018.37
2017-10-04T05:18:04.326Z,1018.36
2017-10-04T05:19:13.623Z,1018.37
2017-10-04T05:20:22.310Z,1018.34
2017-10-04T05:21:31.841Z,1018.29
2017-10-04T05:22:40.835Z,1018.26
2017-10-04T05:23:50.138Z,1018.28
2017-10-04T05:24:59.203Z,1018.27
2017-10-04T05:26:08.177Z,1018.29
2017-10-04T05:27:17.828Z,1018.31
2017-10-04T05:28:26.794Z,1018.36
2017-10-04T05:29:36.134Z,1018.42
2017-10-04T05:30:45.146Z,1018.45
2017-10-04T05:31:54.475Z,1018.45
2017-10-04T05:33:03.979Z,1018.45
2017-10-04T05:34:13.532Z,1018.46
2017-10-04T05:35:22.828Z,1018.51
2017-10-04T05:36:32.483Z,1018.52
2017-10-04T05:37:41.165Z,1018.54
2017-10-04T05:38:50.766Z,1018.5
2017-10-04T05:39:59.752Z,1018.49
2017-10-04T05:41:09.128Z,1018.47
2017-10-04T05:42:18.117Z,1018.46
2017-10-04T05:43:26.869Z,1018.5
2017-10-04T05:44:36.165Z,1018.46
2017-10-04T05:45:45.549Z,1018.43
2017-10-04T05:46:54.871Z,1018.43
2017-10-04T05:48:03.565Z,1018.4
2017-10-04T05:49:12.856Z,1018.35
2017-10-04T05:50:22.005Z,1018.33
2017-10-04T05:51:31.312Z,1018.38
2017-10-04T05:52:40.374Z,1018.43
2017-10-04T05:53:49.346Z,1018.39
2017-10-04T05:54:58.647Z,1018.36
2017-10-04T05:56:07.595Z,1018.33
2017-10-04T05:57:16.872Z,1018.37
2017-10-04T05:58:25.529Z,1018.38
2017-10-04T05:59:34.495Z,1018.49
2017-10-04T06:00:43.788Z,1018.5
2017-10-04T06:01:53.107Z,1018.52
2017-10-04T06:03:02.077Z,1018.53
2017-10-04T06:04:10.861Z,1018.5
2017-10-04T06:05:19.546Z,1018.48
2017-10-04T06:06:28.566Z,1018.45
2017-10-04T06:07:37.992Z,1018.49
2017-10-04T06:08:46.984Z,1018.48
2017-10-04T06:09:55.998Z,1018.46
2017-10-04T06:11:05.284Z,1018.43
2017-10-04T06:12:14.577Z,1018.5
2017-10-04T06:13:23.583Z,1018.5
2017-10-04T06:14:32.880Z,1018.45
2017-10-04T06:15:42.177Z,1018.49
2017-10-04T06:16:51.487Z,1018.54
2017-10-04T06:18:00.144Z,1018.57
2017-10-04T06:19:08.894Z,1018.65
2017-10-04T06:20:17.868Z,1018.59
2017-10-04T06:21:26.529Z,1018.53
2017-10-04T06:22:35.202Z,1018.54
2017-10-04T06:23:43.872Z,1018.57
2017-10-04T06:24:52.948Z,1018.45
2017-10-04T06:26:01.916Z,1018.4
2017-10-04T06:27:10.573Z,1018.34
2017-10-04T06:28:19.537Z,1018.31
2017-10-04T06:29:28.852Z,1018.34
2017-10-04T06:30:37.982Z,1018.34
2017-10-04T06:31:46.962Z,1018.35
2017-10-04T06:32:56.010Z,1018.29
2017-10-04T06:34:05.291Z,1018.28
2017-10-04T06:35:14.308Z,1018.36
2017-10-04T06:36:23.353Z,1018.36
2017-10-04T06:37:32.327Z,1018.46
2017-10-04T06:38:41.341Z,1018.44
2017-10-04T06:39:50.635Z,1018.41
2017-10-04T06:40:59.613Z,1018.32
2017-10-04T06:42:08.582Z,1018.29
2017-10-04T06:43:17.556Z,1018.3
2017-10-04T06:44:26.846Z,1018.28
2017-10-04T06:45:35.819Z,1018.25
2017-10-04T06:46:44.784Z,1018.26
2017-10-04T06:47:53.850Z,1018.3
2017-10-04T06:49:03.746Z,1018.3
2017-10-04T06:50:12.711Z,1018.27
2017-10-04T06:51:21.395Z,1018.26
2017-10-04T06:52:30.697Z,1018.26
2017-10-04T06:53:40.802Z,1018.32
2017-10-04T06:54:49.493Z,1018.33
2017-10-04T06:55:59.410Z,1018.34
2017-10-04T06:57:09.022Z,1018.31
2017-10-04T06:58:18.008Z,1018.33
2017-10-04T06:59:27.315Z,1018.3
2017-10-04T07:00:37.221Z,1018.28
2017-10-04T07:01:45.947Z,1018.3
2017-10-04T07:02:55.568Z,1018.29
2017-10-04T07:04:04.921Z,1018.28
2017-10-04T07:05:14.897Z,1018.23
2017-10-04T07:06:23.902Z,1018.18
2017-10-04T07:07:32.974Z,1018.17
2017-10-04T07:08:41.967Z,1018.22
2017-10-04T07:09:51.269Z,1018.27
2017-10-04T07:11:00.267Z,1018.25
2017-10-04T07:12:09.160Z,1018.2
2017-10-04T07:13:18.114Z,1018.17
2017-10-04T07:14:27.443Z,1018.17
2017-10-04T07:15:36.422Z,1018.14
2017-10-04T07:16:46.031Z,1018.14
2017-10-04T07:17:54.704Z,1018.16
2017-10-04T07:19:03.989Z,1018.13
2017-10-04T07:20:13.266Z,1018.15
2017-10-04T07:21:22.256Z,1018.17
2017-10-04T07:22:30.929Z,1018.16
2017-10-04T07:23:39.927Z,1018.18
2017-10-04T07:24:48.939Z,1018.14
2017-10-04T07:25:57.636Z,1018.17
2017-10-04T07:27:06.303Z,1018.2
2017-10-04T07:28:15.748Z,1018.21
2017-10-04T07:29:24.724Z,1018.27
2017-10-04T07:30:33.695Z,1018.29
2017-10-04T07:31:42.694Z,1018.26
2017-10-04T07:32:51.366Z,1018.27
2017-10-04T07:34:00.355Z,1018.31
2017-10-04T07:35:09.023Z,1018.3
2017-10-04T07:36:17.987Z,1018.36
2017-10-04T07:37:26.970Z,1018.39
2017-10-04T07:38:35.952Z,1018.36
2017-10-04T07:39:44.611Z,1018.32
2017-10-04T07:40:53.571Z,1018.31
2017-10-04T07:42:02.544Z,1018.27
2017-10-04T07:43:11.519Z,1018.22
2017-10-04T07:44:20.869Z,1018.32
2017-10-04T07:45:29.748Z,1018.3
2017-10-04T07:46:38.728Z,1018.35
2017-10-04T07:47:47.706Z,1018.33
2017-10-04T07:48:56.996Z,1018.33
2017-10-04T07:50:06.299Z,1018.34
2017-10-04T07:51:15.584Z,1018.29
2017-10-04T07:52:24.574Z,1018.34
2017-10-04T07:53:33.886Z,1018.32
2017-10-04T07:54:42.857Z,1018.35
2017-10-04T07:55:51.510Z,1018.32
2017-10-04T07:57:00.657Z,1018.37
2017-10-04T07:58:09.641Z,1018.37
2017-10-04T07:59:19.240Z,1018.44
2017-10-04T08:00:28.549Z,1018.44
2017-10-04T08:01:37.214Z,1018.43
2017-10-04T08:02:46.350Z,1018.46
2017-10-04T08:03:55.631Z,1018.42
2017-10-04T08:05:04.600Z,1018.48
2017-10-04T08:06:13.267Z,1018.43
2017-10-04T08:07:22.240Z,1018.4
2017-10-04T08:08:31.041Z,1018.4
2017-10-04T08:09:40.034Z,1018.39
2017-10-04T08:10:48.994Z,1018.4
2017-10-04T08:11:57.948Z,1018.43
2017-10-04T08:13:06.610Z,1018.41
2017-10-04T08:14:15.573Z,1018.39
2017-10-04T08:15:24.523Z,1018.35
2017-10-04T08:16:34.140Z,1018.33
2017-10-04T08:17:42.800Z,1018.34
2017-10-04T08:18:52.086Z,1018.3
2017-10-04T08:20:01.393Z,1018.26
2017-10-04T08:21:10.666Z,1018.22
2017-10-04T08:22:20.583Z,1018.12
2017-10-04T08:23:29.866Z,1018.17
2017-10-04T08:24:38.530Z,1018.18
2017-10-04T08:25:47.327Z,1018.19
2017-10-04T08:26:56.613Z,1018.17
2017-10-04T08:28:05.886Z,1018.17
2017-10-04T08:29:15.164Z,1018.23
2017-10-04T08:30:24.778Z,1018.18
2017-10-04T08:31:33.849Z,1018.14
2017-10-04T08:32:42.844Z,1018.15
2017-10-04T08:33:52.126Z,1018.15
2017-10-04T08:35:01.416Z,1018.16
2017-10-04T08:36:10.397Z,1018.14
2017-10-04T08:37:19.778Z,1018.13
2017-10-04T08:38:29.069Z,1018.09
2017-10-04T08:39:38.025Z,1018.13
2017-10-04T08:40:47.701Z,1018.14
2017-10-04T08:41:56.661Z,1018.15
2017-10-04T08:43:05.783Z,1018.21
2017-10-04T08:44:15.076Z,1018.29
2017-10-04T08:45:24.363Z,1018.28
2017-10-04T08:46:33.352Z,1018.33
2017-10-04T08:47:42.647Z,1018.31
2017-10-04T08:48:51.309Z,1018.27
2017-10-04T08:50:00.327Z,1018.22
2017-10-04T08:51:09.603Z,1018.23
2017-10-04T08:52:18.576Z,1018.19
2017-10-04T08:53:27.236Z,1018.25
2017-10-04T08:54:36.549Z,1018.24
2017-10-04T08:55:46.142Z,1018.21
2017-10-04T08:56:55.449Z,1018.27
2017-10-04T08:58:05.047Z,1018.27
2017-10-04T08:59:14.666Z,1018.3
2017-10-04T09:00:23.797Z,1018.29
2017-10-04T09:01:33.103Z,1018.2
2017-10-04T09:02:42.378Z,1018.24
2017-10-04T09:03:51.337Z,1018.18
2017-10-04T09:05:00.975Z,1018.18
2017-10-04T09:06:10.089Z,1018.15
2017-10-04T09:07:19.356Z,1018.15
2017-10-04T09:08:28.319Z,1018.15
2017-10-04T09:09:37.913Z,1018.24
2017-10-04T09:10:47.180Z,1018.23
2017-10-04T09:11:56.168Z,1018.19
2017-10-04T09:13:05.472Z,1018.11
2017-10-04T09:14:14.442Z,1018.02
2017-10-04T09:15:23.434Z,1017.94
2017-10-04T09:16:32.721Z,1017.95
2017-10-04T09:17:41.718Z,1017.98
2017-10-04T09:18:50.999Z,1018
2017-10-04T09:20:00.285Z,1018.1
2017-10-04T09:21:09.245Z,1018.13
2017-10-04T09:22:18.836Z,1018.12
2017-10-04T09:23:27.808Z,1018.11
2017-10-04T09:24:36.480Z,1018.03
2017-10-04T09:25:45.774Z,1018.06
2017-10-04T09:26:54.730Z,1018.04
2017-10-04T09:28:04.648Z,1018.03
2017-10-04T09:29:13.941Z,1018.09
2017-10-04T09:30:23.286Z,1018.09
2017-10-04T09:31:32.886Z,1018.08
2017-10-04T09:32:41.867Z,1018.11
2017-10-04T09:33:50.845Z,1018.17
2017-10-04T09:35:00.133Z,1018.18
2017-10-04T09:36:09.128Z,1018.14
2017-10-04T09:37:18.404Z,1018.1
2017-10-04T09:38:28.007Z,1018.02
2017-10-04T09:39:37.316Z,1017.96
2017-10-04T09:40:46.517Z,1017.96
2017-10-04T09:41:56.475Z,1017.93
2017-10-04T09:43:05.163Z,1017.88
2017-10-04T09:44:14.866Z,1017.97
2017-10-04T09:45:23.672Z,1017.99
2017-10-04T09:46:32.818Z,1017.99
2017-10-04T09:47:42.872Z,1017.94
2017-10-04T09:48:51.845Z,1017.89
2017-10-04T09:50:00.864Z,1017.92
2017-10-04T09:51:10.494Z,1017.96
2017-10-04T09:52:19.636Z,1017.98
2017-10-04T09:53:28.974Z,1017.96
2017-10-04T09:54:37.657Z,1017.95
2017-10-04T09:55:47.620Z,1017.95
2017-10-04T09:56:56.918Z,1018
2017-10-04T09:58:06.065Z,1018.01
2017-10-04T09:59:14.751Z,1017.98
2017-10-04T10:00:25.021Z,1017.95
2017-10-04T10:01:34.677Z,1017.96
2017-10-04T10:02:43.324Z,1017.99
2017-10-04T10:03:52.297Z,1017.91
2017-10-04T10:05:00.965Z,1017.9
2017-10-04T10:06:10.295Z,1017.83
2017-10-04T10:07:19.891Z,1017.85
2017-10-04T10:08:29.480Z,1017.88
2017-10-04T10:09:38.851Z,1017.86
2017-10-04T10:10:49.616Z,1017.92
2017-10-04T10:11:58.346Z,1017.9
2017-10-04T10:13:07.387Z,1017.86
2017-10-04T10:14:16.716Z,1017.84
2017-10-04T10:15:25.713Z,1017.92
2017-10-04T10:16:35.025Z,1017.93
2017-10-04T10:17:44.011Z,1017.93
2017-10-04T10:18:52.986Z,1017.79
2017-10-04T10:20:01.950Z,1017.77
2017-10-04T10:21:11.853Z,1017.77
2017-10-04T10:22:20.817Z,1017.82
2017-10-04T10:23:29.789Z,1017.93
2017-10-04T10:24:38.752Z,1017.93
2017-10-04T10:25:47.720Z,1017.94
2017-10-04T10:26:56.709Z,1017.96
2017-10-04T10:28:05.398Z,1017.91
2017-10-04T10:29:14.077Z,1017.95
2017-10-04T10:30:23.076Z,1017.99
2017-10-04T10:31:32.387Z,1018.13
2017-10-04T10:32:41.516Z,1018.06
2017-10-04T10:33:50.498Z,1018.02
2017-10-04T10:34:59.483Z,1018.01
2017-10-04T10:36:08.768Z,1018.02
2017-10-04T10:37:17.757Z,1018.01
2017-10-04T10:38:26.568Z,1018.03
2017-10-04T10:39:35.546Z,1018
2017-10-04T10:40:44.604Z,1018
2017-10-04T10:41:53.977Z,1017.96
2017-10-04T10:43:02.948Z,1017.93
2017-10-04T10:44:11.631Z,1017.9
2017-10-04T10:45:20.928Z,1017.89
2017-10-04T10:46:29.634Z,1017.84
2017-10-04T10:47:38.295Z,1017.86
2017-10-04T10:48:46.981Z,1017.96
2017-10-04T10:49:55.999Z,1017.94
2017-10-04T10:51:04.737Z,1017.96
2017-10-04T10:52:14.727Z,1017.99
2017-10-04T10:53:24.775Z,1018.04
2017-10-04T10:54:33.458Z,1018.1
2017-10-04T10:55:42.129Z,1018.09
2017-10-04T10:56:51.099Z,1018.01
2017-10-04T10:57:59.774Z,1018
2017-10-04T10:59:08.772Z,1017.92
2017-10-04T11:00:17.438Z,1017.8
2017-10-04T11:01:27.146Z,1017.75
2017-10-04T11:02:35.860Z,1017.69
2017-10-04T11:03:45.184Z,1017.68
2017-10-04T11:04:53.847Z,1017.66
2017-10-04T11:06:03.463Z,1017.65
2017-10-04T11:07:12.818Z,1017.61
2017-10-04T11:08:21.546Z,1017.69
2017-10-04T11:09:30.207Z,1017.75
2017-10-04T11:10:39.183Z,1017.8
2017-10-04T11:11:48.154Z,1017.74
2017-10-04T11:12:57.130Z,1017.62
2017-10-04T11:14:06.458Z,1017.61
2017-10-04T11:15:15.442Z,1017.56
2017-10-04T11:16:24.725Z,1017.73
2017-10-04T11:17:33.707Z,1017.68
2017-10-04T11:18:43.297Z,1017.6
2017-10-04T11:19:52.907Z,1017.63
2017-10-04T11:21:01.589Z,1017.57
2017-10-04T11:22:10.579Z,1017.59
2017-10-04T11:23:19.551Z,1017.62
2017-10-04T11:24:28.856Z,1017.5
2017-10-04T11:25:37.527Z,1017.45
2017-10-04T11:26:46.502Z,1017.5
2017-10-04T11:27:55.503Z,1017.45
2017-10-04T11:29:05.122Z,1017.32
2017-10-04T11:30:14.243Z,1017.38
2017-10-04T11:31:23.236Z,1017.32
2017-10-04T11:32:31.947Z,1017.36
2017-10-04T11:33:40.934Z,1017.27
2017-10-04T11:34:49.926Z,1017.25
2017-10-04T11:35:58.927Z,1017.37
2017-10-04T11:37:08.262Z,1017.35
2017-10-04T11:38:17.872Z,1017.47
2017-10-04T11:39:26.619Z,1017.42
2017-10-04T11:40:36.231Z,1017.39
2017-10-04T11:41:45.400Z,1017.4
2017-10-04T11:42:54.383Z,1017.41
2017-10-04T11:44:03.348Z,1017.4
2017-10-04T11:45:12.695Z,1017.26
2017-10-04T11:46:21.391Z,1017.29
2017-10-04T11:47:31.026Z,1017.22
2017-10-04T11:48:40.644Z,1017.38
2017-10-04T11:49:49.313Z,1017.29
2017-10-04T11:50:58.276Z,1017.27
2017-10-04T11:52:07.586Z,1017.2
2017-10-04T11:53:16.728Z,1017.29
2017-10-04T11:54:25.734Z,1017.28
2017-10-04T11:55:35.032Z,1017.24
2017-10-04T11:56:44.022Z,1017.28
2017-10-04T11:57:52.714Z,1017.25
2017-10-04T11:59:01.700Z,1017.18
2017-10-04T12:00:10.419Z,1017.14
2017-10-04T12:01:19.081Z,1017.16
2017-10-04T12:02:28.077Z,1017.15
2017-10-04T12:03:37.072Z,1017.21
2017-10-04T12:04:46.380Z,1017.23
2017-10-04T12:05:55.488Z,1017.11
2017-10-04T12:07:04.916Z,1017.12
2017-10-04T12:08:14.203Z,1017.06
2017-10-04T12:09:24.503Z,1017.11
2017-10-04T12:10:34.130Z,1017
2017-10-04T12:11:44.036Z,1017.04
2017-10-04T12:12:53.090Z,1017.14
2017-10-04T12:14:02.392Z,1017.05
2017-10-04T12:15:11.751Z,1017.11
2017-10-04T12:16:21.049Z,1017.16
2017-10-04T12:17:29.778Z,1017.14
2017-10-04T12:18:38.437Z,1017.02
2017-10-04T12:19:47.104Z,1017.03
2017-10-04T12:20:57.339Z,1016.94
2017-10-04T12:22:06.510Z,1016.93
2017-10-04T12:23:15.179Z,1016.93
2017-10-04T12:24:24.482Z,1016.93
2017-10-04T12:25:33.455Z,1016.84
2017-10-04T12:26:42.770Z,1016.87
2017-10-04T12:27:52.152Z,1016.93
2017-10-04T12:29:01.507Z,1017.02
2017-10-04T12:30:10.786Z,1017.06
2017-10-04T12:31:20.140Z,1016.97
2017-10-04T12:32:29.110Z,1017
2017-10-04T12:33:39.237Z,1016.93
2017-10-04T12:34:47.889Z,1016.89
2017-10-04T12:35:56.869Z,1016.93
2017-10-04T12:37:06.176Z,1016.9
2017-10-04T12:38:15.804Z,1016.94
2017-10-04T12:39:25.244Z,1016.92
2017-10-04T12:40:34.537Z,1016.85
2017-10-04T12:41:43.832Z,1016.87
2017-10-04T12:42:53.746Z,1016.9
2017-10-04T12:44:02.714Z,1016.87
2017-10-04T12:45:12.002Z,1016.86
2017-10-04T12:46:20.974Z,1016.84
2017-10-04T12:47:29.642Z,1016.88
2017-10-04T12:48:38.956Z,1016.84
2017-10-04T12:49:47.615Z,1016.8
2017-10-04T12:50:56.327Z,1016.81
2017-10-04T12:52:04.998Z,1016.81
2017-10-04T12:53:13.655Z,1017
2017-10-04T12:54:23.285Z,1017.01
2017-10-04T12:55:32.558Z,1016.95
2017-10-04T12:56:41.363Z,1016.97
2017-10-04T12:57:50.330Z,1016.89
2017-10-04T12:58:59.948Z,1016.89
2017-10-04T13:00:08.910Z,1016.86
2017-10-04T13:01:17.604Z,1016.86
2017-10-04T13:03:34.632Z,1016.77
2017-10-04T13:04:43.595Z,1016.74
2017-10-04T13:05:52.556Z,1016.8
2017-10-04T13:07:01.557Z,1016.78
2017-10-04T13:08:10.847Z,1016.8
2017-10-04T13:09:20.445Z,1016.75
2017-10-04T13:10:29.429Z,1016.76
2017-10-04T13:11:38.402Z,1016.82
2017-10-04T13:12:48.025Z,1016.75
2017-10-04T13:13:56.702Z,1016.83
2017-10-04T13:15:05.357Z,1016.74
2017-10-04T13:16:14.009Z,1016.63
2017-10-04T13:17:23.023Z,1016.61
2017-10-04T13:18:33.632Z,1016.6
2017-10-04T13:19:42.612Z,1016.59
2017-10-04T13:20:51.572Z,1016.63
2017-10-04T13:22:00.558Z,1016.62
2017-10-04T13:23:09.875Z,1016.7
2017-10-04T13:24:19.164Z,1016.55
2017-10-04T13:25:28.124Z,1016.59
2017-10-04T13:26:36.776Z,1016.49
2017-10-04T13:27:46.066Z,1016.63
2017-10-04T13:28:55.044Z,1016.61
2017-10-04T13:30:04.651Z,1016.59
2017-10-04T13:31:14.013Z,1016.7
2017-10-04T13:32:23.104Z,1016.69
2017-10-04T13:33:32.503Z,1016.66
2017-10-04T13:34:42.430Z,1016.68
2017-10-04T13:35:51.474Z,1016.68
2017-10-04T13:37:00.164Z,1016.58
2017-10-04T13:38:09.491Z,1016.53
2017-10-04T13:39:18.812Z,1016.64
2017-10-04T13:40:28.143Z,1016.61
2017-10-04T13:41:37.146Z,1016.63
2017-10-04T13:42:46.110Z,1016.61
2017-10-04T13:43:54.806Z,1016.62
2017-10-04T13:45:03.806Z,1016.64
2017-10-04T13:46:12.465Z,1016.61
2017-10-04T13:47:21.533Z,1016.58
2017-10-04T13:48:30.867Z,1016.52
2017-10-04T13:49:39.843Z,1016.58
2017-10-04T13:50:48.946Z,1016.6
2017-10-04T13:51:58.675Z,1016.56
2017-10-04T13:53:07.970Z,1016.53
2017-10-04T13:54:17.261Z,1016.5
2017-10-04T13:55:26.248Z,1016.54
2017-10-04T13:56:36.493Z,1016.42
2017-10-04T13:57:45.786Z,1016.56
2017-10-04T13:58:54.819Z,1016.61
2017-10-04T14:00:04.186Z,1016.57
2017-10-04T14:01:12.931Z,1016.52